Time;durP1;ratioP1;P1;durP2;ratioP2;P2;SDS_P1;SDS_P2;PMS_P1;PMS_P2;Temp;Humidity;BMP_temperature;BMP_pressure;BME280_temperature;BME280_humidity;BME280_pressure;Samples;Min_cycle;Max_cycle;Signal;HPM_P1;HPM_P2
2022/07/31 00:02:11;;;;;;;;;1.80;1.80;35.80;99.90;;;;;;4850330;29;9625;-76
2022/07/31 00:04:45;;;;;;;;;4.80;2.80;35.80;99.90;;;;;;4835908;29;8862;-77
2022/07/31 00:07:15;;;;;;;;;4.00;3.20;35.90;99.90;;;;;;4853067;29;8865;-78
2022/07/31 00:09:47;;;;;;;;;4.60;2.00;36.20;99.90;;;;;;4855275;29;8869;-77
2022/07/31 00:12:25;;;;;;;;;3.60;2.00;36.00;99.90;;;;;;4865305;29;8899;-77
2022/07/31 00:14:56;;;;;;;;;5.60;2.40;36.00;99.90;;;;;;4856510;29;8858;-76
2022/07/31 00:17:32;;;;;;;;;1.40;1.40;35.90;99.90;;;;;;4854972;29;8892;-77
2022/07/31 00:20:07;;;;;;;;;2.80;2.80;35.90;99.90;;;;;;4852228;29;8863;-77
2022/07/31 00:22:49;;;;;;;;;3.40;2.40;35.90;99.90;;;;;;4837470;29;8901;-77
2022/07/31 00:25:19;;;;;;;;;1.00;1.00;35.80;99.90;;;;;;4846839;29;9840;-76
2022/07/31 00:27:51;;;;;;;;;3.20;1.80;35.70;99.90;;;;;;4838924;29;8858;-77
2022/07/31 00:30:25;;;;;;;;;4.60;2.80;35.70;99.90;;;;;;4852019;29;8892;-77
2022/07/31 00:32:57;;;;;;;;;2.60;1.80;35.60;99.90;;;;;;4850674;29;8833;-77
2022/07/31 00:35:29;;;;;;;;;1.40;1.40;35.50;99.90;;;;;;4838096;29;8861;-78
2022/07/31 00:38:11;;;;;;;;;4.60;2.00;35.40;99.90;;;;;;4852055;29;9468;-77
2022/07/31 00:44:24;;;;;;;;;1.80;1.80;35.40;99.90;;;;;;4855292;29;8861;-78
2022/07/31 00:47:36;;;;;;;;;2.40;2.40;35.30;99.90;;;;;;4850830;29;8909;-77
2022/07/31 00:50:21;;;;;;;;;2.00;1.00;35.10;99.90;;;;;;4837928;29;8869;-77
2022/07/31 00:53:07;;;;;;;;;2.80;1.80;35.00;99.90;;;;;;4849537;29;8874;-77
2022/07/31 00:55:42;;;;;;;;;2.00;2.00;34.90;99.90;;;;;;4849325;29;8877;-78
2022/07/31 00:58:21;;;;;;;;;3.20;2.80;34.90;99.90;;;;;;4850368;29;8892;-75
2022/07/31 01:00:52;;;;;;;;;3.00;1.00;34.80;99.90;;;;;;4850338;29;8850;-77
2022/07/31 01:03:53;;;;;;;;;4.00;2.80;34.80;99.90;;;;;;4852299;29;8858;-80
2022/07/31 01:06:30;;;;;;;;;1.60;1.60;34.70;99.90;;;;;;4836896;29;10215;-77
2022/07/31 01:09:04;;;;;;;;;2.80;2.20;34.70;99.90;;;;;;4840216;29;9604;-77
2022/07/31 01:12:05;;;;;;;;;3.00;3.00;34.70;99.90;;;;;;4835389;29;9056;-77
2022/07/31 01:14:43;;;;;;;;;1.60;1.60;34.60;99.90;;;;;;4851447;29;8909;-77
2022/07/31 01:17:15;;;;;;;;;2.40;2.00;34.60;99.90;;;;;;4836962;29;8920;-77
2022/07/31 01:19:51;;;;;;;;;3.00;1.20;34.50;99.90;;;;;;4840503;29;8889;-77
2022/07/31 01:22:47;;;;;;;;;3.60;3.20;34.50;99.90;;;;;;4850709;29;8869;-77
2022/07/31 01:25:56;;;;;;;;;4.20;2.80;34.40;99.90;;;;;;4842350;29;8865;-78
2022/07/31 01:29:19;;;;;;;;;2.20;1.80;34.30;99.90;;;;;;4847364;29;8927;-78
2022/07/31 01:32:02;;;;;;;;;3.00;2.40;34.20;99.90;;;;;;4834795;29;8906;-77
2022/07/31 01:34:51;;;;;;;;;0.40;0.40;34.10;99.90;;;;;;4848522;29;8884;-78
2022/07/31 01:38:08;;;;;;;;;2.20;2.00;34.10;99.90;;;;;;4840954;29;8893;-74
2022/07/31 01:40:54;;;;;;;;;3.20;3.20;34.00;99.90;;;;;;4820297;29;8865;-72
2022/07/31 01:43:57;;;;;;;;;3.00;3.00;33.70;99.90;;;;;;4848617;29;8884;-81
2022/07/31 01:46:28;;;;;;;;;2.00;1.80;33.60;99.90;;;;;;4849637;29;8865;-75
2022/07/31 01:49:13;;;;;;;;;3.20;3.20;33.50;99.90;;;;;;4845123;29;8900;-76
2022/07/31 01:51:46;;;;;;;;;3.20;3.00;33.40;99.90;;;;;;4863977;29;8899;-76
2022/07/31 01:54:20;;;;;;;;;2.60;2.60;33.30;99.90;;;;;;4843606;29;8862;-76
2022/07/31 01:56:53;;;;;;;;;3.40;3.40;33.20;99.90;;;;;;4829858;29;8865;-77
2022/07/31 01:59:31;;;;;;;;;3.20;2.00;33.20;99.90;;;;;;4843676;29;8978;-77
2022/07/31 02:02:21;;;;;;;;;3.60;2.00;33.10;99.90;;;;;;4834185;29;10129;-75
2022/07/31 02:04:55;;;;;;;;;5.00;3.60;33.10;99.90;;;;;;4831933;29;8869;-77
2022/07/31 02:07:28;;;;;;;;;2.80;2.20;32.90;99.90;;;;;;4846119;29;8893;-77
2022/07/31 02:10:00;;;;;;;;;5.40;3.00;32.90;99.90;;;;;;4842483;29;8903;-77
2022/07/31 02:12:38;;;;;;;;;3.20;3.20;32.80;99.90;;;;;;4832758;29;8901;-78
2022/07/31 02:15:17;;;;;;;;;3.60;2.60;32.70;99.90;;;;;;4862564;29;8902;-77
2022/07/31 02:17:53;;;;;;;;;5.00;2.60;32.50;99.90;;;;;;4834583;29;8862;-77
2022/07/31 02:20:48;;;;;;;;;2.20;2.20;32.60;99.90;;;;;;4851997;29;8884;-77
2022/07/31 02:23:23;;;;;;;;;3.40;3.40;32.60;99.90;;;;;;4832819;29;9691;-72
2022/07/31 02:26:22;;;;;;;;;5.00;3.00;32.60;99.90;;;;;;4832762;29;8911;-74
2022/07/31 02:28:52;;;;;;;;;2.60;2.60;32.50;99.90;;;;;;4847491;29;8912;-75
2022/07/31 02:31:34;;;;;;;;;4.00;4.00;32.50;99.90;;;;;;4861014;29;8877;-78
2022/07/31 02:34:07;;;;;;;;;1.80;1.80;32.40;99.90;;;;;;4855729;29;8849;-78
2022/07/31 02:36:41;;;;;;;;;6.20;5.00;32.30;99.90;;;;;;4852684;29;8853;-79
2022/07/31 02:39:21;;;;;;;;;4.00;4.00;32.30;99.90;;;;;;4852027;29;8925;-76
2022/07/31 02:41:59;;;;;;;;;4.60;3.00;32.30;99.90;;;;;;4848090;29;8884;-74
2022/07/31 02:44:38;;;;;;;;;4.20;3.80;32.20;99.90;;;;;;4847280;29;8854;-74
2022/07/31 02:47:15;;;;;;;;;5.40;4.00;32.20;99.90;;;;;;4845844;29;9609;-77
2022/07/31 02:49:48;;;;;;;;;6.20;5.00;32.20;99.90;;;;;;4854160;29;8869;-79
2022/07/31 02:52:23;;;;;;;;;3.40;3.40;32.10;99.90;;;;;;4850333;29;8858;-77
2022/07/31 02:54:58;;;;;;;;;3.80;3.80;32.20;99.90;;;;;;4853635;29;9035;-77
2022/07/31 02:57:29;;;;;;;;;7.20;4.00;32.10;99.90;;;;;;4850031;29;8873;-74
2022/07/31 03:00:21;;;;;;;;;5.00;4.20;31.90;99.90;;;;;;4846847;29;8872;-77
2022/07/31 03:02:58;;;;;;;;;6.20;4.60;31.90;99.90;;;;;;4835756;29;9374;-78
2022/07/31 03:05:34;;;;;;;;;5.80;5.20;31.80;99.90;;;;;;4870861;29;8883;-78
2022/07/31 03:08:09;;;;;;;;;6.20;5.00;31.70;99.90;;;;;;4846757;29;8957;-75
2022/07/31 03:11:01;;;;;;;;;5.40;4.00;31.70;99.90;;;;;;4849363;29;8858;-77
2022/07/31 03:13:35;;;;;;;;;5.80;5.20;31.70;99.90;;;;;;4847119;29;8885;-73
2022/07/31 03:16:13;;;;;;;;;8.80;5.20;31.60;99.90;;;;;;4851939;29;9015;-77
2022/07/31 03:18:45;;;;;;;;;4.80;4.80;31.60;99.90;;;;;;4852372;29;8862;-77
2022/07/31 03:21:24;;;;;;;;;7.00;5.40;31.70;99.90;;;;;;4833976;29;8895;-78
2022/07/31 03:24:01;;;;;;;;;3.40;2.00;31.50;99.90;;;;;;4848880;29;8899;-77
2022/07/31 03:26:34;;;;;;;;;5.60;4.40;31.40;99.90;;;;;;4848930;29;8896;-77
2022/07/31 03:29:07;;;;;;;;;4.20;4.20;31.40;99.90;;;;;;4838025;29;8924;-76
2022/07/31 03:32:01;;;;;;;;;8.00;6.40;31.40;99.90;;;;;;4838216;29;8912;-74
2022/07/31 03:34:40;;;;;;;;;5.60;5.00;31.30;99.90;;;;;;4834972;29;8873;-77
2022/07/31 03:37:15;;;;;;;;;3.40;3.40;31.30;99.90;;;;;;4851773;29;8861;-76
2022/07/31 03:40:01;;;;;;;;;5.60;3.80;31.30;99.90;;;;;;4838592;29;8882;-75
2022/07/31 03:42:35;;;;;;;;;2.00;2.00;31.30;99.90;;;;;;4858908;29;9699;-75
2022/07/31 03:45:08;;;;;;;;;7.60;4.60;31.20;99.90;;;;;;4852039;29;8871;-75
2022/07/31 03:47:43;;;;;;;;;4.00;4.00;31.10;99.90;;;;;;4849268;29;9024;-73
2022/07/31 03:50:17;;;;;;;;;4.00;3.60;31.00;99.90;;;;;;4850050;29;8898;-75
2022/07/31 03:52:53;;;;;;;;;8.00;4.60;31.00;99.90;;;;;;4851572;29;8895;-76
2022/07/31 03:55:56;;;;;;;;;8.80;5.20;30.90;99.90;;;;;;4851315;29;8886;-77
2022/07/31 03:58:28;;;;;;;;;8.20;6.00;30.90;99.90;;;;;;4850625;29;8901;-74
2022/07/31 04:01:31;;;;;;;;;5.00;4.80;30.80;99.90;;;;;;4830941;29;8865;-75
2022/07/31 04:04:19;;;;;;;;;7.20;4.80;30.80;99.90;;;;;;4848304;29;8873;-75
2022/07/31 04:07:09;;;;;;;;;7.40;6.00;30.70;99.90;;;;;;4844914;29;8897;-76
2022/07/31 04:09:44;;;;;;;;;6.20;3.40;30.80;99.90;;;;;;4829147;29;9032;-70
2022/07/31 04:12:20;;;;;;;;;5.00;5.00;30.50;99.90;;;;;;4834046;29;8862;-73
2022/07/31 04:15:16;;;;;;;;;5.60;5.20;30.50;99.90;;;;;;4859702;29;8852;-75
2022/07/31 04:18:15;;;;;;;;;7.20;5.80;30.50;99.90;;;;;;4845910;29;8915;-75
2022/07/31 04:20:49;;;;;;;;;5.40;3.40;30.50;99.90;;;;;;4847819;29;8901;-75
2022/07/31 04:23:26;;;;;;;;;7.00;5.60;30.50;99.90;;;;;;4845158;29;8869;-76
2022/07/31 04:26:20;;;;;;;;;4.40;3.60;30.50;99.90;;;;;;4844399;29;8826;-75
2022/07/31 04:29:14;;;;;;;;;7.00;4.40;30.50;99.90;;;;;;4846241;29;8892;-74
2022/07/31 04:31:48;;;;;;;;;5.80;5.60;30.40;99.90;;;;;;4851463;29;8847;-75
2022/07/31 04:34:39;;;;;;;;;5.40;4.80;30.40;99.90;;;;;;4843115;29;8968;-76
2022/07/31 04:37:20;;;;;;;;;6.80;4.80;30.30;99.90;;;;;;4812148;29;8856;-75
2022/07/31 04:40:09;;;;;;;;;4.60;4.20;30.20;99.90;;;;;;4846428;29;8881;-74
2022/07/31 04:43:18;;;;;;;;;6.80;4.20;30.10;99.90;;;;;;4854274;29;8799;-73
2022/07/31 04:45:49;;;;;;;;;5.60;5.00;30.10;99.90;;;;;;4832276;29;8889;-73
2022/07/31 04:48:44;;;;;;;;;5.00;4.00;30.10;99.90;;;;;;4828137;29;8920;-76
2022/07/31 04:51:18;;;;;;;;;3.00;3.00;30.20;99.90;;;;;;4835888;29;8915;-75
2022/07/31 04:53:51;;;;;;;;;6.20;5.00;30.10;99.90;;;;;;4846177;29;8877;-74
2022/07/31 04:56:32;;;;;;;;;5.60;5.20;30.10;99.90;;;;;;4846668;29;8896;-75
2022/07/31 04:59:15;;;;;;;;;5.20;4.80;30.10;99.90;;;;;;4848612;29;8878;-72
2022/07/31 05:01:50;;;;;;;;;5.20;5.00;30.00;99.90;;;;;;4832135;29;8853;-73
2022/07/31 05:04:28;;;;;;;;;5.60;4.00;29.90;99.90;;;;;;4850066;29;8905;-73
2022/07/31 05:06:59;;;;;;;;;2.00;1.00;29.90;99.90;;;;;;4850864;29;8850;-73
2022/07/31 05:09:34;;;;;;;;;4.40;4.20;29.90;99.90;;;;;;4850306;29;8893;-73
2022/07/31 05:12:24;;;;;;;;;4.20;4.20;29.90;99.90;;;;;;4847635;29;9635;-73
2022/07/31 05:14:56;;;;;;;;;6.00;4.00;29.80;99.90;;;;;;4851419;29;8877;-74
2022/07/31 05:17:32;;;;;;;;;5.60;4.80;29.70;99.90;;;;;;4851429;29;8874;-75
2022/07/31 05:20:25;;;;;;;;;5.20;5.20;29.80;99.90;;;;;;4819932;29;8884;-74
2022/07/31 05:23:06;;;;;;;;;6.40;5.00;29.70;99.90;;;;;;4845918;29;8907;-75
2022/07/31 05:25:48;;;;;;;;;4.00;4.00;29.60;99.90;;;;;;4838430;29;8865;-73
2022/07/31 05:28:23;;;;;;;;;6.20;5.00;29.60;99.90;;;;;;4848903;29;8900;-74
2022/07/31 05:31:02;;;;;;;;;6.00;5.00;29.50;99.90;;;;;;4836175;29;8865;-73
2022/07/31 05:33:38;;;;;;;;;5.00;4.20;29.50;99.90;;;;;;4866976;29;9028;-74
2022/07/31 05:39:03;;;;;;;;;6.20;5.00;29.40;99.90;;;;;;4848977;29;8828;-75
2022/07/31 05:41:52;;;;;;;;;6.00;6.00;29.40;99.90;;;;;;4853524;29;8849;-73
2022/07/31 05:44:35;;;;;;;;;8.60;7.40;29.40;99.90;;;;;;4838603;29;8873;-73
2022/07/31 05:47:18;;;;;;;;;5.20;4.60;29.20;99.90;;;;;;4848132;29;8857;-72
2022/07/31 05:50:13;;;;;;;;;5.80;4.60;29.30;99.90;;;;;;4848665;29;8888;-72
2022/07/31 05:52:45;;;;;;;;;5.80;4.40;29.30;99.90;;;;;;4849119;29;8869;-74
2022/07/31 05:55:48;;;;;;;;;6.00;6.00;29.20;99.90;;;;;;4845115;29;8862;-73
2022/07/31 05:58:34;;;;;;;;;3.80;3.80;29.10;99.90;;;;;;4846526;29;8871;-74
2022/07/31 06:01:09;;;;;;;;;4.20;4.00;29.10;99.90;;;;;;4845440;29;8873;-74
2022/07/31 06:03:45;;;;;;;;;5.00;5.00;29.10;99.90;;;;;;4843501;29;9560;-74
2022/07/31 06:06:25;;;;;;;;;3.60;3.60;29.10;99.90;;;;;;4847383;29;8904;-74
2022/07/31 06:08:55;;;;;;;;;6.00;5.00;29.00;99.90;;;;;;4847475;29;8885;-74
2022/07/31 06:11:36;;;;;;;;;4.80;4.20;29.00;99.90;;;;;;4844650;29;8877;-74
2022/07/31 06:14:08;;;;;;;;;7.60;4.80;28.90;99.90;;;;;;4850519;29;8877;-74
2022/07/31 06:17:10;;;;;;;;;6.20;5.60;29.00;99.90;;;;;;4842063;29;8901;-75
2022/07/31 06:19:41;;;;;;;;;6.20;5.60;28.80;99.90;;;;;;4849659;29;8869;-74
2022/07/31 06:22:15;;;;;;;;;4.20;4.20;28.80;99.90;;;;;;4835046;29;8908;-73
2022/07/31 06:24:46;;;;;;;;;6.20;5.60;28.70;99.90;;;;;;4846812;29;8874;-73
2022/07/31 06:27:21;;;;;;;;;4.80;4.40;28.70;99.90;;;;;;4833210;29;8864;-75
2022/07/31 06:30:04;;;;;;;;;6.00;6.00;28.60;99.90;;;;;;4847015;29;9007;-73
2022/07/31 06:32:36;;;;;;;;;6.00;4.20;28.60;99.90;;;;;;4846715;29;8893;-72
2022/07/31 06:35:09;;;;;;;;;6.20;6.20;28.50;99.90;;;;;;4846392;29;8862;-72
2022/07/31 06:37:59;;;;;;;;;4.80;4.60;28.60;99.90;;;;;;4849407;29;8869;-73
2022/07/31 06:40:44;;;;;;;;;5.00;5.00;28.50;99.90;;;;;;4839695;29;8905;-73
2022/07/31 06:43:27;;;;;;;;;6.00;6.00;28.50;99.90;;;;;;4852149;29;8864;-73
2022/07/31 06:46:27;;;;;;;;;5.00;5.00;28.40;99.90;;;;;;4803395;29;8879;-74
2022/07/31 06:49:17;;;;;;;;;3.00;3.00;28.40;99.90;;;;;;4849504;29;8849;-74
2022/07/31 06:51:50;;;;;;;;;6.40;5.00;28.40;99.90;;;;;;4851447;29;8904;-74
2022/07/31 06:54:20;;;;;;;;;4.00;4.00;28.40;99.90;;;;;;4846892;29;8873;-72
2022/07/31 06:56:56;;;;;;;;;3.80;3.80;28.30;99.90;;;;;;4841288;29;8881;-75
2022/07/31 06:59:26;;;;;;;;;2.40;2.40;28.30;99.90;;;;;;4840017;29;8936;-73
2022/07/31 07:02:09;;;;;;;;;6.20;6.20;28.20;99.90;;;;;;4845142;29;8905;-73
2022/07/31 07:04:41;;;;;;;;;5.40;5.40;28.30;99.90;;;;;;4846220;29;8868;-74
2022/07/31 07:07:35;;;;;;;;;5.20;3.20;28.30;99.90;;;;;;4848084;29;8885;-74
2022/07/31 07:10:11;;;;;;;;;4.00;4.00;28.20;99.90;;;;;;4842061;29;9654;-74
2022/07/31 07:13:03;;;;;;;;;5.00;5.00;28.10;99.90;;;;;;4840537;29;8869;-74
2022/07/31 07:15:41;;;;;;;;;5.00;5.00;28.00;99.90;;;;;;4842141;29;8904;-74
2022/07/31 07:18:13;;;;;;;;;5.40;5.00;27.90;99.90;;;;;;4841092;29;8872;-74
2022/07/31 07:20:51;;;;;;;;;5.60;5.60;28.00;99.90;;;;;;4837454;29;8857;-72
2022/07/31 07:23:22;;;;;;;;;5.80;4.00;27.90;99.90;;;;;;4844516;29;9550;-74
2022/07/31 07:26:09;;;;;;;;;5.60;5.60;27.90;99.90;;;;;;4839841;29;9659;-74
2022/07/31 07:28:43;;;;;;;;;7.00;4.20;27.90;99.90;;;;;;4842932;29;8860;-74
2022/07/31 07:31:15;;;;;;;;;4.20;4.20;27.90;99.90;;;;;;4843963;29;8870;-73
2022/07/31 07:33:47;;;;;;;;;5.50;5.50;27.90;99.90;;;;;;4843923;29;8869;-73
2022/07/31 07:36:24;;;;;;;;;5.40;5.40;27.80;99.90;;;;;;4869063;29;8877;-73
2022/07/31 07:39:04;;;;;;;;;5.20;5.20;27.80;99.90;;;;;;4834772;29;8853;-73
2022/07/31 07:41:37;;;;;;;;;4.80;4.40;27.80;99.90;;;;;;4853688;29;8865;-74
2022/07/31 07:44:08;;;;;;;;;5.80;5.00;27.60;99.90;;;;;;4855290;29;8877;-73
2022/07/31 07:46:42;;;;;;;;;4.60;4.60;27.60;99.90;;;;;;4851527;29;8924;-75
2022/07/31 07:49:17;;;;;;;;;4.40;4.20;27.60;99.90;;;;;;4847123;29;8890;-73
2022/07/31 07:52:13;;;;;;;;;1.00;1.00;27.60;99.90;;;;;;4849459;29;8877;-74
2022/07/31 07:55:06;;;;;;;;;6.00;5.20;27.40;99.90;;;;;;4817588;29;8892;-73
2022/07/31 07:58:02;;;;;;;;;4.75;4.75;27.50;99.90;;;;;;4818125;29;8868;-73
2022/07/31 08:01:05;;;;;;;;;5.00;5.00;27.50;99.90;;;;;;4842149;29;8896;-74
2022/07/31 08:03:42;;;;;;;;;7.50;6.00;27.50;99.90;;;;;;4847959;29;8897;-74
2022/07/31 08:06:22;;;;;;;;;5.20;5.00;27.40;99.90;;;;;;4843486;29;8885;-73
2022/07/31 08:08:55;;;;;;;;;4.00;4.00;27.40;99.90;;;;;;4848548;29;8880;-73
2022/07/31 08:11:45;;;;;;;;;5.00;5.00;27.40;99.90;;;;;;4855554;29;8853;-74
2022/07/31 08:14:30;;;;;;;;;6.20;5.00;27.30;99.90;;;;;;4849097;29;9201;-74
2022/07/31 08:17:35;;;;;;;;;6.75;5.00;27.30;99.90;;;;;;4837386;29;8881;-74
2022/07/31 08:20:07;;;;;;;;;4.40;4.40;27.30;99.90;;;;;;4849146;29;8886;-74
2022/07/31 08:22:39;;;;;;;;;6.25;6.00;27.30;99.90;;;;;;4848849;29;8862;-74
2022/07/31 08:25:10;;;;;;;;;4.75;4.75;27.20;99.90;;;;;;4852857;29;8846;-74
2022/07/31 08:27:48;;;;;;;;;5.80;5.80;27.10;99.90;;;;;;4848091;29;9709;-74
2022/07/31 08:30:24;;;;;;;;;8.00;6.50;27.20;99.90;;;;;;4848757;29;8882;-73
2022/07/31 08:33:00;;;;;;;;;4.00;4.00;27.20;99.90;;;;;;4827967;29;8909;-74
2022/07/31 08:35:38;;;;;;;;;5.80;5.80;27.30;99.90;;;;;;4847211;29;8869;-73
2022/07/31 08:38:17;;;;;;;;;5.00;4.25;27.10;99.90;;;;;;4855560;29;8869;-73
2022/07/31 08:41:11;;;;;;;;;7.25;4.00;27.10;99.90;;;;;;4846431;29;8870;-74
2022/07/31 08:43:42;;;;;;;;;6.40;6.40;27.00;99.90;;;;;;4830142;29;8888;-74
2022/07/31 08:46:39;;;;;;;;;0.00;0.00;27.00;99.90;;;;;;4828856;29;8918;-74
2022/07/31 08:49:11;;;;;;;;;5.00;5.00;27.00;99.90;;;;;;4843734;29;8856;-74
2022/07/31 08:51:46;;;;;;;;;7.00;5.50;27.00;99.90;;;;;;4844944;29;8877;-74
2022/07/31 08:55:08;;;;;;;;;4.50;4.50;27.00;99.90;;;;;;4831216;29;9419;-75
2022/07/31 08:58:02;;;;;;;;;7.00;5.50;27.00;99.90;;;;;;4846123;29;8888;-74
2022/07/31 09:00:40;;;;;;;;;6.75;4.75;26.90;99.90;;;;;;4844933;29;8875;-74
2022/07/31 09:03:13;;;;;;;;;7.00;6.00;26.90;99.90;;;;;;4841512;29;8936;-74
2022/07/31 09:06:13;;;;;;;;;5.00;5.00;27.00;99.90;;;;;;4846928;29;8857;-74
2022/07/31 09:08:44;;;;;;;;;6.00;6.00;27.00;99.90;;;;;;4843831;29;8894;-74
2022/07/31 09:11:18;;;;;;;;;7.50;5.75;27.00;99.90;;;;;;4845067;29;8893;-74
2022/07/31 09:14:09;;;;;;;;;4.75;4.75;26.80;99.90;;;;;;4829652;29;8881;-74
2022/07/31 09:16:49;;;;;;;;;8.50;5.75;26.80;99.90;;;;;;4827796;29;8881;-74
2022/07/31 09:19:34;;;;;;;;;7.00;5.50;26.70;99.90;;;;;;4859158;29;8866;-74
2022/07/31 09:22:28;;;;;;;;;4.75;4.00;26.80;99.90;;;;;;4840024;29;8900;-74
2022/07/31 09:25:11;;;;;;;;;9.25;7.50;26.70;99.90;;;;;;4833352;29;8892;-74
2022/07/31 09:27:47;;;;;;;;;4.75;4.75;26.70;99.90;;;;;;4842034;29;8866;-74
2022/07/31 09:30:18;;;;;;;;;5.75;5.25;26.70;99.90;;;;;;4845677;29;8877;-73
2022/07/31 09:33:17;;;;;;;;;5.75;5.75;26.70;99.90;;;;;;4826891;29;8863;-72
2022/07/31 09:36:07;;;;;;;;;4.25;4.25;26.60;99.90;;;;;;4846168;29;8866;-73
2022/07/31 09:38:41;;;;;;;;;6.50;6.50;26.60;99.90;;;;;;4847536;29;8865;-73
2022/07/31 09:41:31;;;;;;;;;4.00;4.00;26.60;99.90;;;;;;4843885;29;8861;-73
2022/07/31 09:44:48;;;;;;;;;6.50;6.00;26.50;99.90;;;;;;4848017;29;8897;-73
2022/07/31 09:47:25;;;;;;;;;6.00;6.00;26.40;99.90;;;;;;4843276;29;8925;-72
2022/07/31 09:50:02;;;;;;;;;6.50;6.50;26.50;99.90;;;;;;4841880;29;9582;-72
2022/07/31 09:52:35;;;;;;;;;8.00;8.00;26.50;99.90;;;;;;4845372;29;8930;-74
2022/07/31 09:55:18;;;;;;;;;7.00;7.00;26.50;99.90;;;;;;4830159;29;8880;-74
2022/07/31 09:57:55;;;;;;;;;6.00;6.00;26.60;99.90;;;;;;4857055;29;8880;-73
2022/07/31 10:00:29;;;;;;;;;5.75;5.75;26.60;99.90;;;;;;4841775;29;8889;-73
2022/07/31 10:03:07;;;;;;;;;7.00;7.00;26.50;99.90;;;;;;4855877;29;8885;-72
2022/07/31 10:05:37;;;;;;;;;6.50;6.50;26.50;99.90;;;;;;4844880;29;8863;-72
2022/07/31 10:08:16;;;;;;;;;2.50;2.00;26.30;99.90;;;;;;4842360;29;8859;-74
2022/07/31 10:11:20;;;;;;;;;4.50;4.50;26.30;99.90;;;;;;4794811;29;8891;-73
2022/07/31 10:14:05;;;;;;;;;9.50;9.50;26.40;99.90;;;;;;4833523;29;9656;-73
2022/07/31 10:16:40;;;;;;;;;7.00;7.00;26.40;99.90;;;;;;4829093;29;8896;-74
2022/07/31 10:19:34;;;;;;;;;6.00;4.75;26.40;99.90;;;;;;4846296;29;8869;-74
2022/07/31 10:22:26;;;;;;;;;9.50;7.75;26.30;99.90;;;;;;4849772;29;8866;-73
2022/07/31 10:25:03;;;;;;;;;8.75;7.25;26.30;99.90;;;;;;4848141;29;8908;-72
2022/07/31 10:27:36;;;;;;;;;9.00;8.00;26.30;99.90;;;;;;4850044;29;8865;-72
2022/07/31 10:30:14;;;;;;;;;3.50;3.50;26.40;99.90;;;;;;4847291;29;8896;-74
2022/07/31 10:32:53;;;;;;;;;8.25;6.75;26.30;99.90;;;;;;4840278;29;8850;-74
2022/07/31 10:35:24;;;;;;;;;6.25;6.25;26.20;99.90;;;;;;4851594;29;8841;-73
2022/07/31 10:38:27;;;;;;;;;7.00;7.00;26.10;99.90;;;;;;4845530;29;8869;-72
2022/07/31 10:42:05;;;;;;;;;7.50;7.50;26.20;99.90;;;;;;4839536;29;8909;-73
2022/07/31 10:44:52;;;;;;;;;7.75;7.00;26.00;99.90;;;;;;4841487;29;8865;-73
2022/07/31 10:48:02;;;;;;;;;9.00;6.50;26.00;99.90;;;;;;4842239;29;8865;-73
2022/07/31 10:51:06;;;;;;;;;5.25;5.25;26.10;99.90;;;;;;4839731;29;8865;-73
2022/07/31 10:54:05;;;;;;;;;5.75;5.75;26.10;99.90;;;;;;4840026;29;8893;-73
2022/07/31 10:57:05;;;;;;;;;6.25;5.50;26.00;99.90;;;;;;4842049;29;9688;-73
2022/07/31 10:59:42;;;;;;;;;7.00;7.00;26.00;99.90;;;;;;4847896;29;8858;-74
2022/07/31 11:02:47;;;;;;;;;7.50;7.50;26.00;99.90;;;;;;4824192;29;8893;-73
2022/07/31 11:05:38;;;;;;;;;6.00;6.00;26.00;99.90;;;;;;4843825;29;8861;-74
2022/07/31 11:08:54;;;;;;;;;8.75;7.50;25.90;99.90;;;;;;4852583;29;8900;-73
2022/07/31 11:11:59;;;;;;;;;6.50;6.50;25.90;99.90;;;;;;4834535;29;8842;-74
2022/07/31 11:14:39;;;;;;;;;7.25;7.25;25.80;99.90;;;;;;4847304;29;9608;-75
2022/07/31 11:17:38;;;;;;;;;2.00;2.00;25.80;99.90;;;;;;4837804;29;8877;-74
2022/07/31 11:20:48;;;;;;;;;7.00;7.00;25.80;99.90;;;;;;4848354;29;8931;-74
2022/07/31 11:23:29;;;;;;;;;6.25;6.25;25.80;99.90;;;;;;4844416;29;8916;-72
2022/07/31 11:26:08;;;;;;;;;7.25;7.25;25.90;99.90;;;;;;4849838;29;8900;-74
2022/07/31 11:28:44;;;;;;;;;5.25;5.25;25.90;99.90;;;;;;4865419;29;8893;-72
2022/07/31 11:31:14;;;;;;;;;6.00;6.00;25.80;99.90;;;;;;4845372;29;9613;-75
2022/07/31 11:33:48;;;;;;;;;8.25;7.00;25.80;99.90;;;;;;4846931;29;8893;-72
2022/07/31 11:36:25;;;;;;;;;5.00;5.00;25.90;99.90;;;;;;4834019;29;8896;-73
2022/07/31 11:38:59;;;;;;;;;5.25;5.25;25.90;99.90;;;;;;4845938;29;8869;-72
2022/07/31 11:41:38;;;;;;;;;7.75;6.50;25.80;99.90;;;;;;4846933;29;8865;-73
2022/07/31 11:44:15;;;;;;;;;6.00;6.00;25.70;99.90;;;;;;4863619;29;8869;-73
2022/07/31 11:46:48;;;;;;;;;6.25;5.75;25.80;99.90;;;;;;4843658;29;8951;-74
2022/07/31 11:49:23;;;;;;;;;10.00;8.00;25.80;99.90;;;;;;4849960;29;8880;-73
2022/07/31 11:52:15;;;;;;;;;9.75;9.75;25.80;99.90;;;;;;4834656;29;8947;-73
2022/07/31 11:55:14;;;;;;;;;6.00;6.00;25.70;99.90;;;;;;4862709;29;8924;-73
2022/07/31 11:57:49;;;;;;;;;9.00;7.00;25.70;99.90;;;;;;4847953;29;8892;-74
2022/07/31 12:00:21;;;;;;;;;6.00;6.00;25.70;99.90;;;;;;4851678;29;8881;-73
2022/07/31 12:02:57;;;;;;;;;7.25;7.25;25.70;99.90;;;;;;4844455;29;9565;-72
2022/07/31 12:05:29;;;;;;;;;6.25;6.25;25.70;99.90;;;;;;4850905;29;9838;-74
2022/07/31 12:08:12;;;;;;;;;6.25;5.25;25.50;99.90;;;;;;4849043;29;8853;-74
2022/07/31 12:10:46;;;;;;;;;7.00;7.00;25.50;99.90;;;;;;4849043;29;8909;-74
2022/07/31 12:13:22;;;;;;;;;5.00;5.00;25.50;99.90;;;;;;4830817;29;9392;-75
2022/07/31 12:16:08;;;;;;;;;7.50;7.25;25.60;99.90;;;;;;4843451;29;8877;-74
2022/07/31 12:18:55;;;;;;;;;7.00;5.00;25.70;99.90;;;;;;4845214;29;8920;-73
2022/07/31 12:21:39;;;;;;;;;6.00;6.00;25.70;99.90;;;;;;4846425;29;8837;-74
2022/07/31 12:24:15;;;;;;;;;9.75;9.75;25.70;99.90;;;;;;4852521;29;8850;-74
2022/07/31 12:27:01;;;;;;;;;8.00;5.25;25.80;99.90;;;;;;4848832;29;8992;-74
2022/07/31 12:29:37;;;;;;;;;5.00;5.00;25.70;99.90;;;;;;4849213;29;8848;-75
2022/07/31 12:32:11;;;;;;;;;6.75;6.75;25.60;99.90;;;;;;4845535;29;9604;-74
2022/07/31 12:34:43;;;;;;;;;5.25;5.25;25.70;99.90;;;;;;4834476;29;8877;-73
2022/07/31 12:37:15;;;;;;;;;6.25;6.25;25.80;99.90;;;;;;4830897;29;8860;-73
2022/07/31 12:39:54;;;;;;;;;8.00;6.00;25.80;99.90;;;;;;4849728;29;9560;-73
2022/07/31 12:42:33;;;;;;;;;8.00;7.25;25.70;99.90;;;;;;4837234;29;8840;-73
2022/07/31 12:45:12;;;;;;;;;10.00;7.25;25.80;99.90;;;;;;4849297;29;8884;-72
2022/07/31 12:47:54;;;;;;;;;7.00;7.00;25.80;99.90;;;;;;4845191;29;8896;-73
2022/07/31 12:50:33;;;;;;;;;6.50;4.50;25.80;99.90;;;;;;4848380;29;8849;-76
2022/07/31 12:53:05;;;;;;;;;5.25;4.50;25.90;99.90;;;;;;4848928;29;8982;-72
2022/07/31 12:55:38;;;;;;;;;6.50;5.25;25.90;99.90;;;;;;4848301;29;8872;-72
2022/07/31 12:58:12;;;;;;;;;7.25;7.25;26.00;99.90;;;;;;4847648;29;8860;-73
2022/07/31 13:00:48;;;;;;;;;5.25;5.25;26.00;99.90;;;;;;4842588;29;8903;-73
2022/07/31 13:03:22;;;;;;;;;6.75;6.75;26.00;99.90;;;;;;4845467;29;9553;-73
2022/07/31 13:06:07;;;;;;;;;8.00;6.75;26.20;99.90;;;;;;4834446;29;8862;-73
2022/07/31 13:08:42;;;;;;;;;6.25;5.00;26.20;99.90;;;;;;4849573;29;9592;-74
2022/07/31 13:11:12;;;;;;;;;6.75;6.00;26.10;99.90;;;;;;4860512;29;8864;-73
2022/07/31 13:13:44;;;;;;;;;7.25;6.50;26.10;99.90;;;;;;4848724;29;8861;-74
2022/07/31 13:16:16;;;;;;;;;6.00;6.00;26.10;99.90;;;;;;4851381;29;8833;-73
2022/07/31 13:18:47;;;;;;;;;8.00;6.50;26.20;99.90;;;;;;4851786;29;8931;-73
2022/07/31 13:21:17;;;;;;;;;9.50;7.75;26.20;99.90;;;;;;4850042;29;8908;-74
2022/07/31 13:23:49;;;;;;;;;8.75;8.75;26.20;99.90;;;;;;4847305;29;8884;-74
2022/07/31 13:26:25;;;;;;;;;5.50;5.50;26.30;99.90;;;;;;4865539;29;8861;-74
2022/07/31 13:28:56;;;;;;;;;9.75;9.00;26.30;99.90;;;;;;4841627;29;8872;-74
2022/07/31 13:31:28;;;;;;;;;8.00;8.00;26.40;99.90;;;;;;4848500;29;8912;-74
2022/07/31 13:33:59;;;;;;;;;7.00;7.00;26.50;99.90;;;;;;4846881;29;8885;-74
2022/07/31 13:36:31;;;;;;;;;5.00;5.00;26.50;99.90;;;;;;4842249;29;8889;-75
2022/07/31 13:39:08;;;;;;;;;9.00;8.00;26.50;99.90;;;;;;4843504;29;8865;-74
2022/07/31 13:41:38;;;;;;;;;5.75;5.75;26.60;99.90;;;;;;4831113;29;9649;-73
2022/07/31 13:44:09;;;;;;;;;8.00;8.00;26.70;99.90;;;;;;4848356;29;8873;-73
2022/07/31 13:46:43;;;;;;;;;7.75;7.75;26.70;99.90;;;;;;4850536;29;8893;-73
2022/07/31 13:49:17;;;;;;;;;6.25;6.00;26.80;99.90;;;;;;4847523;29;8882;-73
2022/07/31 13:51:48;;;;;;;;;5.25;5.25;26.90;99.90;;;;;;4833889;29;8857;-74
2022/07/31 13:54:18;;;;;;;;;11.25;7.00;27.00;99.90;;;;;;4846204;29;9032;-73
2022/07/31 13:56:53;;;;;;;;;7.00;6.50;27.10;99.90;;;;;;4822232;29;8876;-73
2022/07/31 13:59:28;;;;;;;;;9.00;9.00;27.10;99.90;;;;;;4846524;29;8907;-80
2022/07/31 14:02:01;;;;;;;;;4.00;4.00;27.20;99.90;;;;;;4852665;29;8872;-74
2022/07/31 14:04:35;;;;;;;;;6.00;6.00;27.20;99.90;;;;;;4844233;29;8891;-74
2022/07/31 14:07:10;;;;;;;;;4.75;4.75;27.30;99.90;;;;;;4863668;29;8845;-75
2022/07/31 14:09:43;;;;;;;;;6.75;6.25;27.40;99.90;;;;;;4847410;29;9880;-74
2022/07/31 14:12:25;;;;;;;;;10.25;8.50;27.50;99.90;;;;;;4843492;29;8876;-74
2022/07/31 14:14:56;;;;;;;;;7.75;7.75;27.60;99.90;;;;;;4850949;29;8900;-73
2022/07/31 14:17:27;;;;;;;;;31.75;30.50;27.60;99.90;;;;;;4837940;29;9653;-75